Time;durP1;ratioP1;P1;durP2;ratioP2;P2;SDS_P1;SDS_P2;PMS_P1;PMS_P2;Temp;Humidity;BMP_temperature;BMP_pressure;BME280_temperature;BME280_humidity;BME280_pressure;Samples;Min_cycle;Max_cycle;Signal;HPM_P1;HPM_P2
2023/01/23 00:04:41;;;;;;;41.80;20.67;;;;;;;1.47;85.32;102279.31;10200648;29;20282;-80
2023/01/23 00:09:44;;;;;;;36.53;17.30;;;;;;;1.47;85.13;102276.69;10209461;29;20051;-78
2023/01/23 00:14:47;;;;;;;35.63;18.00;;;;;;;1.47;85.20;102273.16;10187571;29;20048;-78
2023/01/23 00:19:52;;;;;;;40.03;18.23;;;;;;;1.48;85.36;102259.91;10205299;29;20044;-80
2023/01/23 00:24:55;;;;;;;37.60;18.20;;;;;;;1.42;85.04;102267.03;10213547;29;20083;-80
2023/01/23 00:29:58;;;;;;;39.17;18.85;;;;;;;1.46;85.27;102269.63;10191220;29;20060;-79
2023/01/23 00:35:02;;;;;;;37.00;18.70;;;;;;;1.49;85.36;102266.06;10197744;29;20153;-79
2023/01/23 00:40:07;;;;;;;38.80;18.77;;;;;;;1.45;85.22;102261.69;10224470;29;20047;-80
2023/01/23 00:45:10;;;;;;;36.20;17.92;;;;;;;1.43;85.28;102279.41;10198164;29;20048;-80
2023/01/23 00:50:15;;;;;;;37.75;18.45;;;;;;;1.44;85.04;102276.72;10210303;29;20527;-78
2023/01/23 00:55:17;;;;;;;35.58;18.23;;;;;;;1.44;85.16;102278.50;10196323;29;20052;-80
2023/01/23 01:00:20;;;;;;;35.95;18.58;;;;;;;1.46;85.23;102282.88;10201689;29;20068;-80
2023/01/23 01:05:25;;;;;;;36.17;17.88;;;;;;;1.49;85.11;102281.97;10220224;29;20104;-77
2023/01/23 01:10:28;;;;;;;38.65;18.05;;;;;;;1.46;85.29;102300.56;10238759;29;20052;-78
2023/01/23 01:15:31;;;;;;;36.28;17.45;;;;;;;1.42;85.02;102301.47;10231891;29;20103;-78
2023/01/23 01:20:35;;;;;;;39.97;18.27;;;;;;;1.41;85.29;102297.06;10189368;29;20087;-79
2023/01/23 01:25:39;;;;;;;37.35;17.20;;;;;;;1.44;85.07;102304.97;10208021;29;20040;-79
2023/01/23 01:30:41;;;;;;;35.20;15.70;;;;;;;1.45;84.96;102304.97;10211078;29;20051;-79
2023/01/23 01:35:46;;;;;;;43.33;18.10;;;;;;;1.39;84.79;102320.06;10200832;29;20052;-80
2023/01/23 01:40:49;;;;;;;42.20;18.38;;;;;;;1.41;84.89;102327.09;10211837;29;20550;-79
2023/01/23 01:46:12;;;;;;;45.45;18.25;;;;;;;1.41;85.00;102321.78;10222930;29;20047;-79
2023/01/23 01:51:22;;;;;;;47.05;19.55;;;;;;;1.46;85.13;102325.25;10220082;29;20055;-79
2023/01/23 01:56:29;;;;;;;43.88;18.88;;;;;;;1.51;84.99;102322.56;10205530;29;20059;-80
2023/01/23 02:01:32;;;;;;;45.45;19.27;;;;;;;1.50;84.84;102321.66;10217977;29;20089;-80
2023/01/23 02:06:37;;;;;;;40.67;17.10;;;;;;;1.48;84.97;102334.06;10186332;29;20584;-79
2023/01/23 02:11:42;;;;;;;40.15;16.20;;;;;;;1.49;84.95;102340.25;10196479;29;20048;-80
2023/01/23 02:16:49;;;;;;;40.47;17.23;;;;;;;1.53;84.77;102349.88;10217479;29;20563;-80
2023/01/23 02:22:06;;;;;;;36.47;15.88;;;;;;;1.53;84.85;102341.94;10223143;29;20068;-78
2023/01/23 02:27:10;;;;;;;35.63;15.38;;;;;;;1.56;84.69;102354.28;10219391;29;20044;-80
2023/01/23 02:32:13;;;;;;;41.65;16.15;;;;;;;1.55;85.00;102355.19;10211527;29;20052;-79
2023/01/23 02:37:16;;;;;;;35.88;15.27;;;;;;;1.53;84.80;102354.31;10199967;29;20055;-79
2023/01/23 02:42:22;;;;;;;31.73;15.00;;;;;;;1.51;84.61;102367.59;10196159;29;20051;-78
2023/01/23 02:47:28;;;;;;;32.53;14.38;;;;;;;1.50;84.73;102364.03;10201614;29;20123;-79
2023/01/23 02:52:33;;;;;;;33.95;15.32;;;;;;;1.51;84.81;102357.00;10202396;29;20058;-79
2023/01/23 02:57:37;;;;;;;35.42;16.38;;;;;;;1.49;84.86;102359.66;10208538;29;20056;-80
2023/01/23 03:02:40;;;;;;;40.65;17.98;;;;;;;1.54;84.80;102358.72;10215969;29;20110;-79
2023/01/23 03:07:44;;;;;;;36.72;15.50;;;;;;;1.55;84.81;102363.13;10206087;29;20044;-79
2023/01/23 03:12:49;;;;;;;37.75;16.13;;;;;;;1.50;84.59;102357.88;10192081;29;20107;-78
2023/01/23 03:17:52;;;;;;;34.65;15.18;;;;;;;1.52;84.53;102360.53;10215412;29;20476;-79
2023/01/23 03:22:56;;;;;;;34.38;14.82;;;;;;;1.56;84.56;102357.78;10212775;29;20091;-79
2023/01/23 03:28:00;;;;;;;35.00;15.90;;;;;;;1.59;84.94;102364.84;10192092;29;20052;-78
2023/01/23 03:33:03;;;;;;;35.75;15.30;;;;;;;1.62;84.57;102378.03;10208215;29;20468;-79
2023/01/23 03:38:06;;;;;;;34.83;15.35;;;;;;;1.62;84.79;102360.41;10222830;29;20055;-79
2023/01/23 03:43:10;;;;;;;31.85;14.23;;;;;;;1.59;84.38;102362.19;10225111;29;20044;-79
2023/01/23 03:48:19;;;;;;;30.60;14.20;;;;;;;1.53;84.08;102352.53;10231476;29;20044;-79
2023/01/23 03:53:22;;;;;;;30.58;15.52;;;;;;;1.50;84.41;102347.28;10223487;29;20048;-78
2023/01/23 03:58:26;;;;;;;39.17;16.23;;;;;;;1.49;84.24;102327.88;10221650;29;20119;-79
2023/01/23 04:03:31;;;;;;;31.00;14.98;;;;;;;1.49;84.05;102330.53;10214284;29;20044;-80
2023/01/23 04:08:34;;;;;;;30.50;14.60;;;;;;;1.47;84.02;102323.47;10227659;29;20071;-78
2023/01/23 04:13:39;;;;;;;28.90;13.98;;;;;;;1.45;83.91;102323.53;10240396;29;20063;-78
2023/01/23 04:18:43;;;;;;;28.08;14.63;;;;;;;1.44;83.88;102336.78;10254662;28;20044;-78
2023/01/23 04:23:45;;;;;;;35.45;15.52;;;;;;;1.42;83.52;102336.78;10234526;29;20048;-79
2023/01/23 04:28:50;;;;;;;36.10;15.25;;;;;;;1.42;83.57;102343.84;10239432;29;20060;-79
2023/01/23 04:33:53;;;;;;;33.08;14.98;;;;;;;1.40;83.41;102346.53;10219321;29;20130;-79
2023/01/23 04:38:58;;;;;;;30.98;15.18;;;;;;;1.37;83.50;102335.97;10220844;29;20423;-79
2023/01/23 04:49:32;;;;;;;27.27;13.60;;;;;;;1.37;83.38;102366.84;10203363;29;20044;-79
2023/01/23 04:54:35;;;;;;;25.60;12.55;;;;;;;1.40;83.47;102369.47;10200980;29;20096;-79
2023/01/23 04:59:40;;;;;;;28.33;13.07;;;;;;;1.44;83.37;102373.84;10203121;29;20049;-78
2023/01/23 05:04:43;;;;;;;24.35;12.43;;;;;;;1.50;83.64;102368.47;10195939;23;20436;-75
2023/01/23 05:09:46;;;;;;;26.10;13.10;;;;;;;1.57;83.47;102369.28;10171126;29;20078;-75
2023/01/23 05:14:52;;;;;;;27.08;14.20;;;;;;;1.56;83.69;102376.34;10178813;29;20072;-76
2023/01/23 05:19:55;;;;;;;31.20;14.82;;;;;;;1.58;83.36;102379.00;10193677;29;20040;-75
2023/01/23 05:24:58;;;;;;;33.10;15.85;;;;;;;1.61;83.69;102379.81;10172246;29;20063;-75
2023/01/23 05:30:06;;;;;;;33.88;16.08;;;;;;;1.63;83.69;102366.56;10172718;29;20066;-76
2023/01/23 05:35:10;;;;;;;36.25;15.27;;;;;;;1.62;83.63;102372.75;10174232;29;20044;-75
2023/01/23 05:40:16;;;;;;;33.72;15.90;;;;;;;1.60;83.46;102390.44;10186923;29;20060;-75
2023/01/23 05:45:41;;;;;;;33.28;16.13;;;;;;;1.56;83.38;102392.22;10176711;29;20483;-75
2023/01/23 05:50:50;;;;;;;33.47;15.02;;;;;;;1.60;83.62;102391.31;10178875;29;20038;-74
2023/01/23 05:55:54;;;;;;;28.83;14.38;;;;;;;1.62;83.23;102394.84;10184133;29;20152;-75
2023/01/23 06:00:59;;;;;;;30.20;14.52;;;;;;;1.56;83.32;102407.25;10180063;29;20060;-75
2023/01/23 06:06:20;;;;;;;32.97;15.57;;;;;;;1.56;83.41;102410.78;10173985;29;20052;-75
2023/01/23 06:11:23;;;;;;;32.08;15.27;;;;;;;1.58;82.93;102416.94;10187455;29;20059;-75
2023/01/23 06:16:27;;;;;;;28.35;14.68;;;;;;;1.58;83.26;102424.03;10188059;29;20060;-76
2023/01/23 06:21:31;;;;;;;35.25;15.60;;;;;;;1.49;83.02;102428.53;10170689;29;20512;-76
2023/01/23 06:26:34;;;;;;;35.60;16.02;;;;;;;1.58;83.20;102427.53;10182434;29;20078;-76
2023/01/23 06:31:38;;;;;;;38.80;16.90;;;;;;;1.60;83.37;102432.84;10170339;29;20103;-76
2023/01/23 06:36:44;;;;;;;34.05;15.50;;;;;;;1.56;83.32;102442.56;10178213;29;20051;-79
2023/01/23 06:41:48;;;;;;;38.25;16.52;;;;;;;1.56;83.13;102461.13;10176962;29;20515;-78
2023/01/23 06:46:58;;;;;;;36.28;16.88;;;;;;;1.58;82.94;102466.41;10194205;29;20048;-77
2023/01/23 06:52:01;;;;;;;34.58;16.98;;;;;;;1.61;83.14;102476.97;10179509;29;20114;-78
2023/01/23 06:57:04;;;;;;;37.20;16.85;;;;;;;1.55;83.03;102485.00;10195655;29;20415;-79
2023/01/23 07:02:10;;;;;;;43.10;17.88;;;;;;;1.59;83.24;102490.25;10190725;29;20107;-78
2023/01/23 07:07:21;;;;;;;42.22;18.58;;;;;;;1.63;83.46;102491.09;10171317;29;20063;-79
2023/01/23 07:12:25;;;;;;;46.40;19.92;;;;;;;1.63;83.53;102491.97;10183268;29;20052;-78
2023/01/23 07:17:29;;;;;;;48.00;19.60;;;;;;;1.59;83.35;102489.34;10182963;29;20121;-77
2023/01/23 07:22:32;;;;;;;43.33;19.38;;;;;;;1.54;83.26;102499.13;10180918;29;20051;-79
2023/01/23 07:27:35;;;;;;;43.13;18.52;;;;;;;1.60;83.47;102507.91;10186960;29;20100;-76
2023/01/23 07:32:39;;;;;;;45.03;19.58;;;;;;;1.66;83.78;102512.25;10193169;29;20044;-79
2023/01/23 07:37:42;;;;;;;41.13;18.40;;;;;;;1.69;83.81;102515.75;10183013;29;20048;-79
2023/01/23 07:42:45;;;;;;;42.30;18.92;;;;;;;1.68;83.61;102508.69;10181441;29;20052;-79
2023/01/23 07:47:49;;;;;;;31.05;10.48;;;;;;;1.71;83.48;102521.91;10190802;29;20095;-78
2023/01/23 07:52:52;;;;;;;85.20;27.80;;;;;;;2.09;83.97;102517.09;10180507;29;20056;-78
2023/01/23 07:57:58;;;;;;;36.15;17.15;;;;;;;2.44;83.15;102516.69;10175934;29;20104;-78
2023/01/23 08:03:02;;;;;;;22.88;12.95;;;;;;;2.67;82.22;102529.66;10178310;29;20044;-79
2023/01/23 08:08:06;;;;;;;23.00;13.10;;;;;;;2.86;81.81;102532.06;10177568;29;20040;-79
2023/01/23 08:13:15;;;;;;;24.38;12.60;;;;;;;2.94;81.14;102532.81;10177567;29;20057;-79
2023/01/23 08:18:19;;;;;;;21.02;11.60;;;;;;;2.93;80.48;102534.56;10180168;29;20135;-79
2023/01/23 08:23:24;;;;;;;22.65;11.75;;;;;;;2.92;78.51;102548.75;10185053;29;20076;-78
2023/01/23 08:28:27;;;;;;;22.13;13.90;;;;;;;2.76;78.37;102534.81;10183741;29;20037;-77
2023/01/23 08:33:33;;;;;;;23.17;12.07;;;;;;;2.56;79.36;102548.38;10184387;29;20496;-78
2023/01/23 08:38:35;;;;;;;27.42;12.90;;;;;;;2.45;79.32;102544.06;10189411;29;20059;-77
2023/01/23 08:43:40;;;;;;;29.58;15.15;;;;;;;2.40;80.01;102560.03;10187094;29;20048;-78
2023/01/23 08:48:44;;;;;;;24.45;13.77;;;;;;;2.38;80.24;102562.69;10185594;29;20455;-77
2023/01/23 08:53:47;;;;;;;26.85;13.23;;;;;;;2.34;80.35;102555.69;10181479;29;20107;-77
2023/01/23 08:58:51;;;;;;;28.10;13.77;;;;;;;2.24;80.48;102564.66;10196385;29;20055;-78
2023/01/23 09:03:56;;;;;;;27.30;13.32;;;;;;;2.33;80.75;102561.00;10183768;29;20055;-75
2023/01/23 09:08:59;;;;;;;25.70;13.55;;;;;;;2.35;80.44;102569.81;10182074;29;20113;-76
2023/01/23 09:14:01;;;;;;;26.52;13.27;;;;;;;2.37;80.56;102568.03;10193035;29;20076;-77
2023/01/23 09:19:07;;;;;;;25.92;13.60;;;;;;;2.50;80.78;102576.75;10194455;29;20511;-77
2023/01/23 09:24:09;;;;;;;24.00;11.93;;;;;;;2.63;80.80;102590.75;10191110;29;20052;-77
2023/01/23 09:29:12;;;;;;;19.55;11.80;;;;;;;2.63;80.64;102580.13;10180703;29;20123;-78
2023/01/23 09:34:16;;;;;;;22.10;12.38;;;;;;;2.67;80.42;102581.88;10182183;29;20086;-78
2023/01/23 09:39:20;;;;;;;27.80;13.45;;;;;;;2.80;80.44;102586.13;10183681;29;20075;-76
2023/01/23 09:44:35;;;;;;;24.73;12.65;;;;;;;2.71;78.50;102587.09;10189837;29;20086;-75
2023/01/23 09:49:45;;;;;;;25.25;13.57;;;;;;;2.79;78.66;102590.53;10174285;29;20094;-75
2023/01/23 09:54:52;;;;;;;27.80;13.77;;;;;;;2.92;78.48;102596.56;10167140;29;20163;-76
2023/01/23 10:00:03;;;;;;;23.55;12.02;;;;;;;2.94;77.40;102591.22;10173784;29;20099;-76
2023/01/23 10:05:14;;;;;;;25.02;13.48;;;;;;;2.97;77.16;102596.50;10149497;29;20542;-76
2023/01/23 10:10:53;;;;;;;22.83;13.80;;;;;;;3.10;77.08;102594.53;10168801;29;20076;-75
2023/01/23 10:16:10;;;;;;;25.55;12.60;;;;;;;3.18;77.15;102582.91;10144148;29;20134;-76
2023/01/23 10:21:25;;;;;;;22.92;13.15;;;;;;;3.04;76.21;102601.72;10173445;29;20052;-77
2023/01/23 10:26:31;;;;;;;21.88;12.73;;;;;;;3.09;76.14;102606.06;10173290;29;20076;-75
2023/01/23 10:31:38;;;;;;;25.08;14.05;;;;;;;3.12;76.25;102593.59;10166342;29;20115;-75
2023/01/23 10:36:54;;;;;;;23.70;13.85;;;;;;;3.13;76.67;102605.13;10174618;29;20064;-76
2023/01/23 10:41:57;;;;;;;28.58;14.25;;;;;;;3.20;76.53;102601.47;10177414;29;20128;-75
2023/01/23 10:47:17;;;;;;;23.38;13.93;;;;;;;3.20;76.44;102598.81;10172400;29;20044;-75
2023/01/23 10:52:35;;;;;;;23.35;13.43;;;;;;;3.13;77.03;102598.03;10133715;29;20045;-76
2023/01/23 10:57:47;;;;;;;23.98;13.25;;;;;;;3.19;78.42;102600.59;10171966;29;20107;-75
2023/01/23 11:02:50;;;;;;;24.67;12.88;;;;;;;3.28;79.31;102584.50;10187382;23;20043;-77
2023/01/23 11:07:55;;;;;;;25.92;14.63;;;;;;;3.31;78.71;102585.38;10221253;29;20115;-78
2023/01/23 11:12:59;;;;;;;25.88;14.63;;;;;;;3.39;78.61;102579.03;10218598;29;20086;-78
2023/01/23 11:18:22;;;;;;;28.60;14.82;;;;;;;3.44;79.04;102573.63;10192513;29;20411;-77
2023/01/23 11:23:26;;;;;;;;;;;;;;;3.40;78.59;102572.81;10199163;29;20071;-76
2023/01/23 11:28:34;;;;;;;21.20;11.75;;;;;;;3.36;78.16;102579.06;10202123;29;19923;-78
2023/01/23 11:33:43;;;;;;;23.00;12.63;;;;;;;3.32;78.20;102571.16;10203451;29;20071;-77
2023/01/23 11:38:50;;;;;;;21.25;11.13;;;;;;;3.33;78.37;102572.94;10187969;29;20131;-78
2023/01/23 11:43:55;;;;;;;20.48;11.50;;;;;;;3.31;78.39;102569.44;10195956;29;20416;-79
2023/01/23 11:49:13;;;;;;;20.05;11.63;;;;;;;3.22;78.21;102573.09;10202008;29;20077;-79
2023/01/23 11:54:38;;;;;;;21.08;12.27;;;;;;;3.33;78.50;102564.97;10198328;29;20048;-78
2023/01/23 11:59:59;;;;;;;21.83;12.68;;;;;;;3.35;78.60;102550.75;10208899;29;20091;-76
2023/01/23 12:05:20;;;;;;;21.67;12.35;;;;;;;3.36;78.32;102554.28;10193277;29;20079;-77
2023/01/23 12:10:30;;;;;;;19.40;12.70;;;;;;;3.48;78.27;102560.28;10204195;29;20048;-77
2023/01/23 12:15:43;;;;;;;26.90;13.60;;;;;;;3.50;77.81;102558.47;10204163;29;20074;-77
2023/01/23 12:20:56;;;;;;;24.00;12.52;;;;;;;3.53;77.32;102551.34;10197356;29;20055;-77
2023/01/23 12:26:12;;;;;;;23.02;12.60;;;;;;;3.53;76.29;102556.66;10199888;29;20079;-79
2023/01/23 12:31:28;;;;;;;21.25;12.25;;;;;;;3.40;75.37;102558.63;10199910;29;20087;-77
2023/01/23 12:37:05;;;;;;;24.70;13.35;;;;;;;3.43;75.69;102561.28;10204400;29;20043;-77
2023/01/23 12:42:25;;;;;;;25.50;13.27;;;;;;;3.45;76.83;102554.13;10190266;29;20100;-78
2023/01/23 12:47:32;;;;;;;29.45;13.40;;;;;;;3.61;77.99;102549.44;10203527;29;20067;-78
2023/01/23 12:52:39;;;;;;;24.08;13.00;;;;;;;3.50;76.02;102553.16;10210776;29;20067;-78
2023/01/23 12:57:50;;;;;;;22.48;12.75;;;;;;;3.53;76.82;102567.28;10202537;29;20122;-78
2023/01/23 13:03:24;;;;;;;27.23;14.13;;;;;;;3.55;77.00;102563.72;10217789;29;20095;-78
2023/01/23 13:08:34;;;;;;;25.58;13.82;;;;;;;3.61;78.34;102571.56;10204817;29;20058;-78
2023/01/23 13:13:54;;;;;;;23.33;13.75;;;;;;;3.52;77.95;102582.38;10235218;29;20064;-78
2023/01/23 13:30:05;;;;;;;28.27;14.60;;;;;;;3.50;79.57;102586.81;10215723;29;20051;-78
2023/01/23 13:35:48;;;;;;;28.30;15.40;;;;;;;3.43;79.68;102587.84;10207868;29;20047;-78
2023/01/23 13:41:25;;;;;;;30.13;15.00;;;;;;;3.41;79.83;102593.16;10208392;29;20054;-78
2023/01/23 13:46:39;;;;;;;30.98;15.20;;;;;;;3.29;78.31;102574.75;10203647;29;20070;-78
2023/01/23 13:51:59;;;;;;;29.10;15.68;;;;;;;3.34;78.96;102582.66;10090360;29;20141;-78
2023/01/23 13:57:18;;;;;;;34.35;17.00;;;;;;;3.31;78.76;102588.91;9971131;29;20067;-78
2023/01/23 14:08:18;;;;;;;32.10;17.38;;;;;;;3.28;78.60;102599.56;9801545;30;20090;-78
2023/01/23 14:13:36;;;;;;;35.40;17.27;;;;;;;3.16;78.29;102611.25;9727779;30;20054;-79
2023/01/23 14:18:58;;;;;;;38.70;19.20;;;;;;;3.11;79.00;102609.59;9677921;30;20089;-78
2023/01/23 14:24:21;;;;;;;36.45;17.35;;;;;;;3.15;79.16;102622.78;9761909;30;20571;-78
2023/01/23 14:29:27;;;;;;;35.60;18.48;;;;;;;3.10;79.09;102621.09;9859592;29;20528;-78
2023/01/23 14:34:38;;;;;;;40.05;19.02;;;;;;;3.06;78.85;102618.47;9958689;29;20112;-78
2023/01/23 14:39:46;;;;;;;37.20;18.40;;;;;;;3.03;79.51;102612.34;9988420;29;20065;-77
2023/01/23 14:44:56;;;;;;;35.08;19.25;;;;;;;3.03;80.03;102618.53;10166149;29;20169;-78
2023/01/23 14:50:02;;;;;;;42.40;20.67;;;;;;;2.99;79.82;102626.53;10244640;29;20526;-77
2023/01/23 14:55:20;;;;;;;45.15;22.52;;;;;;;2.91;79.24;102623.09;10235638;29;20047;-77
2023/01/23 15:00:35;;;;;;;40.80;20.60;;;;;;;2.86;79.48;102625.84;10208281;29;20055;-78
2023/01/23 15:05:40;;;;;;;43.60;20.90;;;;;;;2.77;79.64;102624.19;10207599;29;20096;-77
2023/01/23 15:10:46;;;;;;;39.22;20.20;;;;;;;2.77;79.77;102626.84;10205438;29;20555;-78
2023/01/23 15:15:55;;;;;;;38.80;20.45;;;;;;;2.75;79.74;102628.63;10211598;29;20047;-78
2023/01/23 15:21:01;;;;;;;41.17;19.02;;;;;;;2.63;79.67;102619.94;10209120;29;20040;-77
2023/01/23 15:26:22;;;;;;;38.15;19.30;;;;;;;2.49;78.71;102609.47;10223036;29;20062;-77
2023/01/23 15:31:29;;;;;;;45.60;20.23;;;;;;;2.41;78.85;102609.53;10207088;29;20036;-79
2023/01/23 15:36:33;;;;;;;40.90;19.33;;;;;;;2.42;79.26;102610.44;10215989;29;20123;-77
2023/01/23 15:41:44;;;;;;;45.92;21.00;;;;;;;2.46;79.95;102612.16;10209723;29;20518;-78
2023/01/23 15:46:47;;;;;;;40.83;19.10;;;;;;;2.32;79.54;102605.22;10210590;29;20458;-78
2023/01/23 15:51:52;;;;;;;44.53;21.90;;;;;;;2.31;79.37;102608.78;10196009;29;20436;-77
2023/01/23 15:56:54;;;;;;;46.42;20.80;;;;;;;2.33;80.05;102617.63;10198789;29;20131;-77
2023/01/23 16:02:15;;;;;;;40.60;21.20;;;;;;;2.29;80.09;102612.34;10177192;28;20056;-77
2023/01/23 16:07:36;;;;;;;47.55;22.55;;;;;;;2.30;79.94;102612.31;10160798;28;20048;-76
2023/01/23 16:12:39;;;;;;;48.65;23.58;;;;;;;2.26;79.75;102610.59;10159544;28;20044;-77
2023/01/23 16:17:42;;;;;;;39.90;19.92;;;;;;;2.15;79.53;102608.06;10171782;28;20594;-78
2023/01/23 16:22:48;;;;;;;48.17;24.25;;;;;;;2.13;79.33;102611.63;10166021;28;20051;-77
2023/01/23 16:27:51;;;;;;;40.72;20.45;;;;;;;2.10;79.13;102615.19;10168959;28;20051;-78
2023/01/23 16:32:54;;;;;;;42.78;20.88;;;;;;;2.11;79.39;102610.75;10199776;28;20035;-77
2023/01/23 16:38:00;;;;;;;41.95;21.33;;;;;;;2.11;79.68;102606.34;10213145;28;20071;-77
2023/01/23 16:43:03;;;;;;;41.67;21.42;;;;;;;2.20;80.46;102612.47;10192396;28;20261;-77
2023/01/23 16:48:06;;;;;;;42.85;22.17;;;;;;;2.18;80.10;102608.03;10182499;28;20047;-78
2023/01/23 16:53:22;;;;;;;43.58;20.92;;;;;;;2.17;80.83;102605.41;10177358;28;20462;-78
2023/01/23 16:58:27;;;;;;;42.08;20.58;;;;;;;2.18;80.09;102608.03;10183438;28;20074;-78
2023/01/23 17:03:35;;;;;;;42.67;21.88;;;;;;;2.15;80.40;102618.66;10170165;28;20052;-78
2023/01/23 17:08:39;;;;;;;42.33;22.40;;;;;;;2.18;80.65;102610.69;10185272;28;20058;-78
2023/01/23 17:13:42;;;;;;;42.90;20.75;;;;;;;2.20;80.81;102617.75;10200823;28;20103;-78
2023/01/23 17:18:45;;;;;;;44.50;21.80;;;;;;;2.25;81.18;102618.56;10204966;28;20099;-78
2023/01/23 17:23:49;;;;;;;47.33;21.63;;;;;;;2.21;81.20;102623.03;10183737;28;20050;-78
2023/01/23 17:28:52;;;;;;;43.33;21.10;;;;;;;2.18;80.63;102609.81;10174143;28;20048;-78
2023/01/23 17:33:55;;;;;;;40.47;19.30;;;;;;;2.13;80.51;102615.16;10176785;28;20102;-78
2023/01/23 17:39:00;;;;;;;38.28;19.33;;;;;;;2.10;80.63;102627.56;10178625;28;20043;-78
2023/01/23 17:44:03;;;;;;;42.25;22.15;;;;;;;2.10;80.21;102615.19;10179305;28;20058;-78
2023/01/23 17:49:29;;;;;;;41.85;22.15;;;;;;;1.98;79.84;102628.56;10176282;28;20052;-78
2023/01/23 17:54:33;;;;;;;41.42;20.33;;;;;;;2.01;79.85;102614.41;10173967;28;20075;-78
2023/01/23 17:59:36;;;;;;;46.33;20.58;;;;;;;2.04;79.99;102617.91;10170977;28;20116;-77
2023/01/23 18:04:42;;;;;;;40.78;19.55;;;;;;;2.07;80.26;102620.53;10172221;28;20051;-77
2023/01/23 18:09:47;;;;;;;38.90;20.25;;;;;;;2.06;80.62;102624.06;10165035;28;20046;-77
2023/01/23 18:14:56;;;;;;;39.92;20.20;;;;;;;2.04;80.15;102636.47;10169748;28;20103;-77
2023/01/23 18:19:59;;;;;;;41.30;21.42;;;;;;;2.01;79.84;102633.84;10176849;28;20051;-77
2023/01/23 18:25:04;;;;;;;41.08;20.63;;;;;;;2.03;79.83;102634.72;10196153;28;20131;-77
2023/01/23 18:30:20;;;;;;;37.25;18.35;;;;;;;1.97;79.71;102632.09;10170822;28;20062;-78
2023/01/23 18:35:32;;;;;;;37.35;20.27;;;;;;;1.94;79.59;102635.66;10165011;28;20051;-77
2023/01/23 18:40:48;;;;;;;37.77;19.27;;;;;;;1.98;79.73;102649.78;10160725;28;20039;-78
2023/01/23 18:45:51;;;;;;;39.20;19.67;;;;;;;2.04;80.34;102643.53;10170067;28;20089;-78
2023/01/23 18:51:08;;;;;;;40.55;20.25;;;;;;;2.08;80.46;102642.59;10175439;28;20060;-77
2023/01/23 18:56:22;;;;;;;37.70;19.90;;;;;;;2.03;80.12;102641.78;10173884;28;20047;-78
2023/01/23 19:01:34;;;;;;;38.85;19.17;;;;;;;2.02;80.31;102643.53;10159070;29;20108;-78
2023/01/23 19:06:40;;;;;;;36.42;20.02;;;;;;;2.00;80.56;102639.16;10137876;28;20055;-78
2023/01/23 19:11:56;;;;;;;33.50;17.95;;;;;;;1.95;80.22;102650.69;10171163;28;20107;-78
2023/01/23 19:17:07;;;;;;;38.00;19.85;;;;;;;1.94;80.65;102656.00;10169685;28;20071;-77
2023/01/23 19:22:12;;;;;;;41.08;20.60;;;;;;;1.86;80.35;102650.75;10178840;28;20048;-78
2023/01/23 19:27:21;;;;;;;41.67;21.05;;;;;;;1.83;80.42;102658.72;10176298;28;20075;-78
2023/01/23 19:32:24;;;;;;;41.50;20.98;;;;;;;1.81;80.61;102665.84;10177339;28;20063;-79
2023/01/23 19:37:27;;;;;;;37.25;19.52;;;;;;;1.82;80.81;102678.19;10180560;28;20055;-78
2023/01/23 19:42:36;;;;;;;39.45;19.30;;;;;;;1.80;80.69;102684.38;10222447;28;20051;-76
2023/01/23 19:47:53;;;;;;;33.67;18.25;;;;;;;1.85;80.96;102688.75;10181388;29;20138;-77
2023/01/23 19:52:57;;;;;;;36.03;18.30;;;;;;;1.77;81.34;102695.91;10166427;28;20056;-77
2023/01/23 19:58:01;;;;;;;39.85;19.05;;;;;;;1.74;81.34;102701.22;10164800;28;20062;-77
2023/01/23 20:03:04;;;;;;;32.15;17.83;;;;;;;1.77;81.10;102695.91;10168585;28;20759;-77
2023/01/23 20:08:07;;;;;;;34.55;18.02;;;;;;;1.72;80.60;102697.69;10173931;28;20107;-77
2023/01/23 20:13:13;;;;;;;39.38;19.52;;;;;;;1.66;80.22;102711.88;10169818;29;20531;-79
2023/01/23 20:18:16;;;;;;;38.10;18.92;;;;;;;1.74;80.61;102709.16;10173807;28;20056;-79
2023/01/23 20:23:19;;;;;;;38.03;19.48;;;;;;;1.81;80.13;102710.00;10172980;28;20407;-78
2023/01/23 20:28:23;;;;;;;35.80;18.70;;;;;;;1.87;80.32;102710.84;10174839;28;20066;-78
2023/01/23 20:33:26;;;;;;;36.25;17.33;;;;;;;1.89;80.43;102709.06;10185381;28;20129;-78
2023/01/23 20:38:29;;;;;;;38.50;20.00;;;;;;;1.91;80.58;102706.38;10164147;28;20048;-78
2023/01/23 20:43:34;;;;;;;36.22;18.13;;;;;;;1.92;80.72;102703.75;10166948;28;20043;-77
2023/01/23 20:48:38;;;;;;;39.15;19.30;;;;;;;1.91;80.64;102712.56;10174843;28;20066;-78
2023/01/23 20:53:42;;;;;;;35.55;18.25;;;;;;;1.89;80.42;102711.72;10177891;28;20055;-77
2023/01/23 21:04:08;;;;;;;37.25;18.60;;;;;;;1.91;80.94;102701.09;10182947;28;20538;-78
2023/01/23 21:09:10;;;;;;;37.95;19.98;;;;;;;1.87;81.03;102696.72;10185508;28;20443;-78
2023/01/23 21:14:15;;;;;;;39.83;18.30;;;;;;;1.87;80.54;102694.94;10180483;28;20054;-78
2023/01/23 21:19:18;;;;;;;41.35;19.38;;;;;;;1.91;80.74;102701.09;10180062;28;20100;-78
2023/01/23 21:24:21;;;;;;;35.30;18.25;;;;;;;1.90;80.77;102708.16;10183339;28;20048;-78
2023/01/23 21:29:25;;;;;;;36.83;18.67;;;;;;;1.91;81.24;102709.03;10168473;28;20542;-77
2023/01/23 21:34:28;;;;;;;35.13;19.08;;;;;;;1.86;80.62;102701.13;10182548;28;20513;-77
2023/01/23 21:39:31;;;;;;;40.63;19.10;;;;;;;1.86;80.39;102700.25;10177085;28;20160;-78
2023/01/23 21:44:35;;;;;;;37.38;19.27;;;;;;;1.88;80.83;102702.00;10186720;28;20574;-78
2023/01/23 21:49:37;;;;;;;40.08;18.10;;;;;;;1.85;80.65;102696.72;10180541;28;20289;-78
2023/01/23 21:54:42;;;;;;;35.22;17.55;;;;;;;1.86;80.56;102695.81;10176416;28;20240;-77
2023/01/23 22:01:30;;;;;;;37.70;18.08;;;;;;;1.89;80.70;102692.25;10174790;28;20062;-78
2023/01/23 22:05:14;;;;;;;38.30;19.25;;;;;;;1.90;80.85;102697.56;10178120;28;20550;-77
2023/01/23 22:10:17;;;;;;;38.17;18.38;;;;;;;1.93;80.75;102699.31;10166718;28;20052;-78
2023/01/23 22:15:22;;;;;;;35.53;19.17;;;;;;;1.95;80.91;102703.72;10217866;23;20094;-78
2023/01/23 22:20:25;;;;;;;35.38;17.42;;;;;;;1.94;80.75;102704.59;10218637;29;20052;-78
2023/01/23 22:25:28;;;;;;;30.90;16.15;;;;;;;1.99;81.03;102701.91;10216769;29;20581;-78
2023/01/23 22:30:32;;;;;;;33.30;16.95;;;;;;;2.00;80.87;102703.66;10225287;29;20044;-75
2023/01/23 22:35:37;;;;;;;34.80;17.45;;;;;;;1.97;80.67;102701.03;10214223;29;20083;-77
2023/01/23 22:40:41;;;;;;;30.30;16.67;;;;;;;1.91;80.38;102694.00;10188838;29;20054;-79
2023/01/23 22:45:45;;;;;;;29.77;15.98;;;;;;;1.93;80.14;102686.06;10201748;29;20130;-79
2023/01/23 22:50:48;;;;;;;32.83;16.67;;;;;;;1.92;79.97;102693.13;10200083;29;20151;-78
2023/01/23 22:55:50;;;;;;;33.90;17.48;;;;;;;1.92;80.14;102698.44;10199434;29;20039;-79
2023/01/23 23:00:54;;;;;;;36.60;18.25;;;;;;;1.96;80.50;102696.63;10203939;29;20114;-78
2023/01/23 23:05:58;;;;;;;34.92;17.20;;;;;;;1.95;80.23;102703.72;10195751;29;20555;-76
2023/01/23 23:11:02;;;;;;;31.75;16.73;;;;;;;1.93;79.82;102702.84;10200204;29;20054;-78
2023/01/23 23:16:08;;;;;;;33.60;17.15;;;;;;;1.92;79.81;102702.84;10199295;29;20180;-78
2023/01/23 23:21:12;;;;;;;26.58;13.95;;;;;;;1.85;79.39;102717.94;10196830;29;20079;-77
2023/01/23 23:26:15;;;;;;;29.42;15.10;;;;;;;1.89;78.38;102716.13;10189812;29;20052;-76
2023/01/23 23:31:19;;;;;;;26.77;14.77;;;;;;;1.87;77.86;102710.84;10193209;29;20055;-78
2023/01/23 23:36:22;;;;;;;27.90;14.52;;;;;;;1.81;77.76;102720.59;10195904;29;20510;-78
2023/01/23 23:41:25;;;;;;;26.55;13.82;;;;;;;1.95;78.47;102724.03;10195374;29;20067;-76
2023/01/23 23:46:29;;;;;;;27.52;14.65;;;;;;;1.90;77.93;102725.84;10209245;29;20060;-79